Weather at Soekarno-Hatta International Airport

Public forecast

Using degrees Celsius for public forecast. Weather courtesy of forecast.io.

Current aviation weather report (METAR) for Soekarno-Hatta International Airport

Retrieved 2021/12/05 20:00 UTC (18 minutes ago):

WIII 052000Z 24002KT 4000 BR FEW020 25/24 Q1009 NOSIG

Aviation forecast (TAF) for Soekarno-Hatta International Airport

Retrieved 2021/12/05 18:00 UTC (2 hours ago):

TAF WIII 051700Z 0518/0700 31002KT 3000 BR SCT020 BECMG 0522/0601 7000 NSW TEMPO 0603/0607 28010KT 4000 -TSRA FEW018CB BKN020 BECMG 0612/0614 4000 HZ